createdAt,value
2017-08-21T00:01:11.262Z,14.40
2017-08-21T00:04:12.733Z,15.40
2017-08-21T00:07:14.222Z,15.20
2017-08-21T00:10:15.757Z,14.90
2017-08-21T00:13:17.253Z,14.20
2017-08-21T00:16:19.475Z,15.40
2017-08-21T00:19:21.062Z,15.50
2017-08-21T00:22:23.344Z,15.30
2017-08-21T00:25:25.630Z,15.40
2017-08-21T00:28:27.074Z,15.40
2017-08-21T00:31:29.396Z,15.30
2017-08-21T00:34:31.078Z,15.40
2017-08-21T00:37:32.661Z,15.20
2017-08-21T00:40:34.863Z,15.30
2017-08-21T00:43:36.436Z,14.00
2017-08-21T00:46:38.170Z,15.30
2017-08-21T00:49:39.692Z,15.30
2017-08-21T00:55:49.411Z,15.20
2017-08-21T00:58:50.980Z,15.20
2017-08-21T01:01:52.544Z,15.20
2017-08-21T01:04:54.088Z,15.00
2017-08-21T01:07:55.573Z,15.20
2017-08-21T01:10:57.132Z,15.20
2017-08-21T01:13:58.782Z,14.70
2017-08-21T01:17:01.033Z,15.20
2017-08-21T01:20:02.633Z,15.20
2017-08-21T01:23:04.146Z,14.90
2017-08-21T01:26:05.722Z,15.10
2017-08-21T01:29:07.217Z,15.20
2017-08-21T01:32:08.749Z,14.40
2017-08-21T01:35:11.147Z,15.10
2017-08-21T01:38:12.642Z,14.70
2017-08-21T01:41:14.228Z,15.10
2017-08-21T01:44:16.445Z,15.00
2017-08-21T01:47:17.983Z,15.00
2017-08-21T01:50:19.460Z,13.70
2017-08-21T01:53:20.933Z,14.90
2017-08-21T01:56:22.501Z,15.10
2017-08-21T01:59:23.998Z,15.00
2017-08-21T02:02:25.457Z,13.30
2017-08-21T02:05:26.965Z,14.80
2017-08-21T02:08:28.394Z,14.70
2017-08-21T02:11:29.892Z,13.70
2017-08-21T02:14:31.358Z,14.80
2017-08-21T02:17:32.848Z,14.90
2017-08-21T02:20:34.307Z,14.70
2017-08-21T02:23:35.778Z,14.20
2017-08-21T02:26:37.299Z,13.60
2017-08-21T02:29:38.778Z,14.60
2017-08-21T02:32:40.293Z,14.70
2017-08-21T02:35:41.790Z,14.60
2017-08-21T02:38:45.124Z,13.60
2017-08-21T02:41:46.604Z,14.60
2017-08-21T02:44:48.127Z,14.00
2017-08-21T02:47:49.580Z,14.50
2017-08-21T02:50:51.099Z,14.00
2017-08-21T02:53:52.537Z,14.40
2017-08-21T02:56:54.035Z,14.40
2017-08-21T02:59:55.545Z,14.30
2017-08-21T03:02:57.075Z,14.10
2017-08-21T03:05:58.519Z,14.80
2017-08-21T03:08:59.913Z,14.30
2017-08-21T03:12:01.345Z,14.00
2017-08-21T03:15:02.829Z,14.40
2017-08-21T03:18:04.326Z,14.30
2017-08-21T03:21:05.867Z,13.60
2017-08-21T03:24:07.432Z,14.30
2017-08-21T03:27:08.938Z,14.30
2017-08-21T03:30:10.443Z,13.90
2017-08-21T03:33:11.928Z,13.60
2017-08-21T03:36:13.414Z,13.50
2017-08-21T03:39:15.709Z,14.10
2017-08-21T03:42:17.187Z,14.60
2017-08-21T03:45:18.702Z,14.10
2017-08-21T03:48:20.884Z,14.20
2017-08-21T03:51:22.350Z,14.00
2017-08-21T03:54:23.788Z,13.70
2017-08-21T03:57:25.253Z,12.80
2017-08-21T04:00:26.766Z,13.20
2017-08-21T04:03:28.237Z,14.00
2017-08-21T04:06:29.739Z,14.10
2017-08-21T04:09:31.211Z,14.00
2017-08-21T04:12:32.678Z,14.00
2017-08-21T04:15:34.120Z,14.00
2017-08-21T04:18:35.555Z,14.40
2017-08-21T04:21:37.000Z,12.90
2017-08-21T04:24:38.533Z,13.10
2017-08-21T04:27:40.022Z,13.80
2017-08-21T04:30:41.560Z,13.90
2017-08-21T04:33:43.031Z,12.50
2017-08-21T04:36:44.543Z,13.30
2017-08-21T04:39:46.008Z,14.00
2017-08-21T04:42:47.454Z,12.90
2017-08-21T04:45:49.008Z,13.80
2017-08-21T04:48:50.441Z,13.90
2017-08-21T04:51:52.642Z,13.70
2017-08-21T04:54:54.180Z,14.70
2017-08-21T05:01:03.818Z,13.40
2017-08-21T05:04:05.260Z,13.80
2017-08-21T05:07:07.484Z,13.80
2017-08-21T05:10:08.937Z,13.90
2017-08-21T05:13:10.373Z,13.80
2017-08-21T05:16:11.817Z,13.70
2017-08-21T05:19:13.247Z,13.60
2017-08-21T05:22:14.704Z,13.90
2017-08-21T05:25:16.933Z,14.00
2017-08-21T05:28:18.416Z,14.00
2017-08-21T05:31:19.812Z,13.00
2017-08-21T05:34:21.283Z,14.10
2017-08-21T05:37:22.730Z,14.20
2017-08-21T05:40:24.136Z,13.30
2017-08-21T05:43:25.649Z,14.40
2017-08-21T05:46:27.125Z,14.80
2017-08-21T05:49:28.580Z,15.20
2017-08-21T05:52:30.020Z,14.40
2017-08-21T05:55:31.468Z,13.60
2017-08-21T05:58:33.039Z,13.20
2017-08-21T06:01:34.556Z,14.40
2017-08-21T06:04:36.058Z,14.40
2017-08-21T06:07:38.145Z,14.70
2017-08-21T06:10:39.540Z,14.70
2017-08-21T06:13:40.869Z,14.70
2017-08-21T06:16:42.265Z,14.80
2017-08-21T06:19:43.625Z,14.90
2017-08-21T06:22:44.994Z,14.90
2017-08-21T06:25:47.074Z,14.90
2017-08-21T06:28:48.440Z,14.90
2017-08-21T06:31:49.788Z,14.80
2017-08-21T06:34:51.131Z,14.90
2017-08-21T06:37:52.495Z,14.90
2017-08-21T06:40:53.867Z,15.00
2017-08-21T06:43:55.277Z,14.90
2017-08-21T06:46:56.655Z,14.90
2017-08-21T06:49:57.997Z,14.90
2017-08-21T06:52:59.315Z,15.00
2017-08-21T06:56:01.459Z,15.10
2017-08-21T06:59:02.913Z,14.90
2017-08-21T07:02:04.279Z,15.10
2017-08-21T07:05:06.378Z,15.10
2017-08-21T07:08:07.719Z,15.10
2017-08-21T07:11:09.129Z,15.20
2017-08-21T07:14:10.479Z,15.20
2017-08-21T07:17:11.885Z,15.20
2017-08-21T07:20:13.298Z,15.40
2017-08-21T07:23:15.428Z,15.60
2017-08-21T07:26:16.813Z,15.60
2017-08-21T07:29:18.915Z,15.80
2017-08-21T07:32:20.287Z,15.80
2017-08-21T07:35:22.046Z,15.60
2017-08-21T07:38:23.456Z,15.80
2017-08-21T07:41:25.564Z,16.10
2017-08-21T07:44:26.944Z,16.10
2017-08-21T07:47:28.283Z,16.10
2017-08-21T07:50:29.675Z,16.30
2017-08-21T07:53:31.781Z,16.40
2017-08-21T07:56:33.131Z,16.30
2017-08-21T07:59:34.499Z,16.50
2017-08-21T08:02:35.896Z,16.50
2017-08-21T08:05:37.311Z,16.50
2017-08-21T08:08:38.758Z,16.50
2017-08-21T08:11:40.139Z,16.50
2017-08-21T08:14:42.390Z,18.20
2017-08-21T08:17:43.870Z,18.00
2017-08-21T08:20:46.041Z,17.80
2017-08-21T08:23:48.110Z,17.50
2017-08-21T08:26:49.547Z,17.50
2017-08-21T08:29:50.966Z,17.20
2017-08-21T08:32:52.313Z,17.20
2017-08-21T08:35:53.711Z,17.20
2017-08-21T08:38:55.060Z,17.10
2017-08-21T08:41:57.164Z,17.20
2017-08-21T08:44:58.507Z,17.20
2017-08-21T08:47:59.883Z,17.20
2017-08-21T08:51:01.269Z,17.30
2017-08-21T08:54:03.410Z,17.30
2017-08-21T08:57:04.772Z,17.30
2017-08-21T09:00:06.162Z,17.00
2017-08-21T09:03:07.621Z,17.30
2017-08-21T09:10:04.130Z,17.30
2017-08-21T09:13:05.559Z,17.40
2017-08-21T09:16:06.955Z,17.40
2017-08-21T09:19:08.375Z,17.50
2017-08-21T09:22:09.737Z,17.50
2017-08-21T09:25:11.146Z,17.70
2017-08-21T09:28:12.507Z,17.80
2017-08-21T09:31:13.967Z,17.80
2017-08-21T09:34:15.348Z,17.90
2017-08-21T09:37:16.724Z,18.10
2017-08-21T09:40:19.048Z,18.70
2017-08-21T09:43:20.482Z,18.70
2017-08-21T09:46:22.016Z,18.80
2017-08-21T09:49:23.482Z,18.80
2017-08-21T09:52:24.924Z,18.50
2017-08-21T09:55:26.324Z,18.70
2017-08-21T09:58:27.741Z,19.00
2017-08-21T10:01:29.166Z,19.30
2017-08-21T10:04:30.649Z,19.40
2017-08-21T10:07:32.095Z,19.20
2017-08-21T10:10:33.574Z,19.50
2017-08-21T10:13:35.041Z,19.30
2017-08-21T10:16:36.487Z,19.20
2017-08-21T10:19:37.930Z,19.20
2017-08-21T10:22:39.364Z,19.30
2017-08-21T10:25:40.806Z,18.70
2017-08-21T10:28:43.662Z,18.40
2017-08-21T10:31:45.153Z,18.20
2017-08-21T10:34:46.628Z,19.10
2017-08-21T10:37:48.076Z,19.50
2017-08-21T10:40:49.514Z,19.00
2017-08-21T10:43:51.101Z,18.80
2017-08-21T10:46:52.580Z,19.00
2017-08-21T10:49:54.150Z,18.80
2017-08-21T10:52:55.628Z,19.00
2017-08-21T10:55:57.113Z,19.00
2017-08-21T10:58:58.516Z,18.90
2017-08-21T11:01:59.957Z,18.90
2017-08-21T11:05:01.316Z,18.80
2017-08-21T11:08:02.731Z,18.70
2017-08-21T11:11:04.134Z,18.60
2017-08-21T11:14:05.509Z,18.50
2017-08-21T11:17:06.862Z,18.60
2017-08-21T11:20:08.290Z,19.10
2017-08-21T11:23:09.690Z,19.50
2017-08-21T11:26:11.032Z,19.90
2017-08-21T11:29:12.431Z,20.00
2017-08-21T11:32:13.816Z,20.10
2017-08-21T11:35:15.172Z,19.90
2017-08-21T11:38:16.532Z,19.80
2017-08-21T11:41:17.949Z,19.70
2017-08-21T11:44:19.352Z,19.90
2017-08-21T11:47:20.716Z,20.10
2017-08-21T11:50:22.124Z,20.50
2017-08-21T11:53:23.472Z,20.70
2017-08-21T11:56:24.931Z,20.80
2017-08-21T11:59:26.278Z,21.00
2017-08-21T12:02:27.766Z,21.00
2017-08-21T12:05:29.177Z,21.00
2017-08-21T12:08:30.574Z,21.10
2017-08-21T12:11:32.015Z,21.10
2017-08-21T12:14:35.012Z,21.30
2017-08-21T12:17:36.394Z,21.60
2017-08-21T12:20:37.776Z,21.50
2017-08-21T12:23:39.263Z,21.60
2017-08-21T12:26:40.632Z,21.60
2017-08-21T12:29:42.007Z,21.80
2017-08-21T12:32:43.422Z,21.90
2017-08-21T12:35:44.971Z,22.00
2017-08-21T12:38:46.538Z,21.90
2017-08-21T12:41:47.969Z,21.80
2017-08-21T12:44:49.394Z,22.00
2017-08-21T12:47:50.780Z,21.80
2017-08-21T12:50:52.472Z,22.10
2017-08-21T12:53:53.884Z,22.20
2017-08-21T12:56:55.218Z,22.20
2017-08-21T12:59:56.721Z,22.30
2017-08-21T13:02:58.121Z,22.50
2017-08-21T13:05:59.536Z,22.50
2017-08-21T13:09:01.209Z,22.50
2017-08-21T13:12:02.798Z,22.20
2017-08-21T13:15:04.225Z,22.20
2017-08-21T13:18:05.668Z,21.80
2017-08-21T13:21:07.161Z,21.40
2017-08-21T13:24:08.563Z,21.00
2017-08-21T13:27:09.965Z,20.80
2017-08-21T13:30:11.320Z,20.50
2017-08-21T13:33:15.902Z,20.30
2017-08-21T13:36:18.045Z,20.30
2017-08-21T13:39:19.723Z,20.80
2017-08-21T13:42:21.191Z,21.40
2017-08-21T13:45:22.916Z,21.50
2017-08-21T13:48:24.402Z,21.40
2017-08-21T13:51:25.858Z,21.10
2017-08-21T13:54:27.362Z,21.10
2017-08-21T13:57:28.944Z,21.30
2017-08-21T14:00:30.450Z,21.10
2017-08-21T14:03:33.014Z,21.20
2017-08-21T14:06:34.635Z,21.00
2017-08-21T14:09:36.438Z,20.80
2017-08-21T14:12:37.829Z,20.60
2017-08-21T14:15:39.601Z,20.90
2017-08-21T14:18:41.082Z,20.70
2017-08-21T14:21:42.700Z,20.80
2017-08-21T14:24:44.106Z,21.20
2017-08-21T14:27:46.189Z,21.70
2017-08-21T14:30:47.838Z,21.90
2017-08-21T14:33:49.326Z,21.90
2017-08-21T14:36:50.792Z,22.20
2017-08-21T14:39:52.271Z,22.20
2017-08-21T14:42:53.762Z,22.40
2017-08-21T14:45:55.234Z,22.10
2017-08-21T14:48:56.702Z,21.50
2017-08-21T14:51:58.188Z,21.20
2017-08-21T14:54:59.597Z,21.00
2017-08-21T14:58:01.044Z,21.50
2017-08-21T15:01:02.512Z,21.70
2017-08-21T15:04:04.112Z,22.00
2017-08-21T15:07:05.553Z,22.10
2017-08-21T15:10:07.018Z,22.40
2017-08-21T15:13:08.425Z,22.40
2017-08-21T15:16:09.857Z,22.40
2017-08-21T15:19:11.324Z,22.50
2017-08-21T15:22:12.714Z,22.60
2017-08-21T15:25:14.135Z,22.60
2017-08-21T15:28:15.551Z,22.30
2017-08-21T15:31:17.026Z,22.40
2017-08-21T15:34:18.432Z,22.20
2017-08-21T15:37:19.876Z,21.80
2017-08-21T15:40:21.328Z,21.40
2017-08-21T15:43:22.665Z,21.00
2017-08-21T15:46:24.044Z,20.70
2017-08-21T15:49:25.419Z,20.90
2017-08-21T15:52:26.782Z,21.20
2017-08-21T15:55:28.173Z,21.40
2017-08-21T15:58:29.573Z,21.50
2017-08-21T16:01:30.914Z,21.40
2017-08-21T16:04:32.373Z,21.10
2017-08-21T16:07:33.764Z,21.00
2017-08-21T16:10:35.098Z,20.80
2017-08-21T16:13:36.494Z,20.80
2017-08-21T16:16:37.840Z,20.60
2017-08-21T16:19:39.251Z,20.50
2017-08-21T16:22:40.601Z,20.60
2017-08-21T16:25:41.970Z,20.60
2017-08-21T16:28:43.313Z,20.60
2017-08-21T16:31:44.738Z,20.50
2017-08-21T16:34:46.156Z,20.50
2017-08-21T16:37:47.525Z,20.40
2017-08-21T16:40:48.933Z,20.40
2017-08-21T16:43:50.305Z,20.40
2017-08-21T16:46:51.713Z,20.30
2017-08-21T16:49:53.092Z,20.20
2017-08-21T16:52:54.420Z,20.30
2017-08-21T16:55:55.865Z,20.20
2017-08-21T16:58:57.220Z,20.20
2017-08-21T17:01:58.651Z,20.10
2017-08-21T17:05:00.002Z,20.10
2017-08-21T17:08:01.364Z,20.00
2017-08-21T17:11:02.778Z,19.90
2017-08-21T17:14:04.135Z,19.80
2017-08-21T17:17:05.546Z,19.70
2017-08-21T17:20:06.944Z,19.70
2017-08-21T17:23:08.325Z,19.50
2017-08-21T17:26:09.712Z,19.50
2017-08-21T17:29:11.089Z,19.40
2017-08-21T17:32:12.481Z,19.40
2017-08-21T17:35:13.865Z,19.20
2017-08-21T17:38:15.182Z,19.20
2017-08-21T17:41:16.568Z,19.20
2017-08-21T17:44:17.914Z,19.20
2017-08-21T17:47:19.308Z,19.10
2017-08-21T17:50:20.672Z,19.20
2017-08-21T17:53:22.017Z,19.20
2017-08-21T17:56:23.394Z,19.00
2017-08-21T17:59:24.741Z,19.00
2017-08-21T18:02:26.142Z,19.00
2017-08-21T18:05:27.545Z,18.90
2017-08-21T18:08:28.901Z,18.90
2017-08-21T18:11:30.591Z,18.90
2017-08-21T18:14:32.208Z,18.80
2017-08-21T18:17:34.548Z,18.80
2017-08-21T18:20:36.759Z,18.70
2017-08-21T18:23:38.227Z,18.60
2017-08-21T18:26:40.600Z,18.60
2017-08-21T18:29:43.655Z,18.60
2017-08-21T18:32:47.406Z,18.30
2017-08-21T18:35:49.936Z,18.40
2017-08-21T18:38:51.354Z,18.40
2017-08-21T18:41:52.729Z,18.40
2017-08-21T18:44:55.154Z,18.30
2017-08-21T18:47:56.657Z,18.20
2017-08-21T18:50:58.077Z,18.20
2017-08-21T18:54:00.001Z,18.20
2017-08-21T18:57:01.744Z,18.20
2017-08-21T19:00:04.354Z,18.20
2017-08-21T19:03:05.870Z,18.10
2017-08-21T19:06:10.832Z,18.10
2017-08-21T19:09:13.479Z,18.00
2017-08-21T19:12:16.047Z,18.10
2017-08-21T19:15:19.009Z,17.90
2017-08-21T19:18:20.738Z,18.00
2017-08-21T19:21:22.408Z,17.80
2017-08-21T19:24:27.046Z,18.00
2017-08-21T19:27:28.368Z,17.80
2017-08-21T19:30:30.827Z,17.80
2017-08-21T19:33:33.899Z,17.60
2017-08-21T19:36:36.016Z,17.70
2017-08-21T19:39:38.969Z,17.70
2017-08-21T19:42:40.452Z,17.50
2017-08-21T19:45:44.460Z,17.50
2017-08-21T19:48:46.111Z,17.50
2017-08-21T19:51:48.171Z,17.50
2017-08-21T19:54:49.896Z,17.50
2017-08-21T19:57:52.456Z,17.50
2017-08-21T20:00:53.833Z,17.50
2017-08-21T20:04:02.961Z,17.40
2017-08-21T20:07:05.876Z,17.40
2017-08-21T20:10:08.835Z,17.40
2017-08-21T20:13:10.335Z,17.40
2017-08-21T20:16:12.262Z,17.40
2017-08-21T20:19:14.113Z,17.50
2017-08-21T20:22:16.343Z,17.30
2017-08-21T20:25:18.001Z,17.30
2017-08-21T20:28:19.509Z,17.10
2017-08-21T20:31:22.488Z,17.00
2017-08-21T20:34:25.018Z,16.50
2017-08-21T20:37:26.896Z,16.50
2017-08-21T20:40:29.923Z,16.70
2017-08-21T20:43:32.647Z,16.50
2017-08-21T20:46:35.539Z,16.30
2017-08-21T20:49:37.355Z,16.50
2017-08-21T20:52:39.875Z,16.20
2017-08-21T20:55:42.729Z,16.50
2017-08-21T20:58:44.603Z,17.00
2017-08-21T21:01:46.343Z,16.50
2017-08-21T21:04:47.852Z,16.30
2017-08-21T21:07:49.303Z,16.60
2017-08-21T21:10:50.857Z,16.60
2017-08-21T21:13:52.368Z,16.60
2017-08-21T21:16:53.821Z,16.30
2017-08-21T21:19:55.324Z,16.10
2017-08-21T21:22:57.165Z,16.50
2017-08-21T21:25:58.980Z,16.60
2017-08-21T21:29:00.575Z,16.60
2017-08-21T21:32:02.043Z,16.60
2017-08-21T21:35:03.522Z,15.90
2017-08-21T21:38:05.089Z,16.00
2017-08-21T21:41:06.637Z,16.40
2017-08-21T21:44:08.132Z,16.10
2017-08-21T21:47:09.544Z,16.50
2017-08-21T21:50:11.020Z,16.50
2017-08-21T21:53:12.421Z,16.50
2017-08-21T21:56:13.909Z,16.40
2017-08-21T21:59:15.360Z,16.20
2017-08-21T22:02:16.854Z,16.30
2017-08-21T22:05:18.395Z,16.10
2017-08-21T22:08:19.811Z,16.40
2017-08-21T22:11:21.297Z,16.30
2017-08-21T22:14:22.760Z,16.20
2017-08-21T22:17:24.222Z,16.20
2017-08-21T22:20:25.684Z,16.20
2017-08-21T22:23:27.137Z,16.20
2017-08-21T22:26:28.789Z,16.10
2017-08-21T22:29:30.248Z,16.20
2017-08-21T22:32:31.770Z,16.10
2017-08-21T22:35:33.274Z,16.10
2017-08-21T22:38:34.844Z,15.80
2017-08-21T22:41:36.273Z,16.00
2017-08-21T22:44:37.745Z,16.10
2017-08-21T22:47:39.197Z,16.10
2017-08-21T22:50:40.742Z,15.80
2017-08-21T22:53:42.455Z,16.10
2017-08-21T22:56:43.918Z,16.10
2017-08-21T22:59:45.385Z,15.90
2017-08-21T23:02:46.825Z,16.00
2017-08-21T23:05:48.325Z,16.00
2017-08-21T23:08:49.757Z,16.10
2017-08-21T23:11:51.197Z,15.80
2017-08-21T23:14:52.613Z,15.80
2017-08-21T23:17:54.050Z,15.60
2017-08-21T23:20:55.477Z,15.80
2017-08-21T23:23:57.010Z,15.90
2017-08-21T23:26:58.529Z,15.90
2017-08-21T23:29:59.930Z,15.90
2017-08-21T23:33:01.358Z,15.90
2017-08-21T23:36:02.829Z,15.30
2017-08-21T23:39:04.277Z,15.90
2017-08-21T23:42:05.700Z,15.70
2017-08-21T23:45:07.165Z,15.90
2017-08-21T23:48:08.619Z,15.40
2017-08-21T23:51:10.137Z,15.70
2017-08-21T23:54:11.578Z,16.10
2017-08-21T23:57:13.053Z,15.80
